Time;durP1;ratioP1;P1;durP2;ratioP2;P2;SDS_P1;SDS_P2;PMS_P1;PMS_P2;Temp;Humidity;BMP_temperature;BMP_pressure;BME280_temperature;BME280_humidity;BME280_pressure;Samples;Min_cycle;Max_cycle;Signal;HPM_P1;HPM_P2
2023/04/22 00:02:05;;;;;;;4.60;2.40;;;;;;;14.96;80.31;99904.00;108179;1284;21978;-60
2023/04/22 00:04:32;;;;;;;7.60;2.30;;;;;;;14.92;80.43;99907.14;108196;1279;21987;-60
2023/04/22 00:06:59;;;;;;;5.30;2.50;;;;;;;14.89;80.62;99912.92;108172;1284;22021;-61
2023/04/22 00:09:24;;;;;;;6.60;2.40;;;;;;;14.87;80.62;99916.70;108171;1284;21986;-61
2023/04/22 00:11:50;;;;;;;6.50;2.20;;;;;;;14.85;80.43;99924.20;108273;1284;22007;-60
2023/04/22 00:14:16;;;;;;;7.80;2.60;;;;;;;14.83;80.22;99924.27;108223;1284;22749;-60
2023/04/22 00:16:45;;;;;;;5.80;2.20;;;;;;;14.81;80.53;99924.51;108152;1284;21991;-60
2023/04/22 00:19:11;;;;;;;7.60;2.50;;;;;;;14.82;80.24;99927.13;108210;1284;21983;-59
2023/04/22 00:21:36;;;;;;;5.70;2.30;;;;;;;14.82;80.16;99927.48;108153;1284;22040;-60
2023/04/22 00:24:02;;;;;;;5.70;2.10;;;;;;;14.81;79.66;99933.33;108180;1284;21989;-61
2023/04/22 00:26:28;;;;;;;5.20;2.40;;;;;;;14.78;79.92;99934.52;108193;1284;21987;-60
2023/04/22 00:28:54;;;;;;;10.50;2.80;;;;;;;14.75;79.99;99935.54;108157;1284;21988;-60
2023/04/22 00:31:19;;;;;;;7.90;2.40;;;;;;;14.71;79.87;99936.55;108158;1284;21992;-59
2023/04/22 00:33:45;;;;;;;5.60;2.10;;;;;;;14.67;79.91;99938.05;108183;1282;22002;-60
2023/04/22 00:36:11;;;;;;;4.70;2.00;;;;;;;14.66;79.83;99937.39;108160;1284;21984;-60
2023/04/22 00:38:36;;;;;;;5.60;2.10;;;;;;;14.65;79.63;99940.42;108190;1284;21980;-60
2023/04/22 00:41:02;;;;;;;5.50;2.40;;;;;;;14.65;79.82;99942.20;108157;1279;22006;-59
2023/04/22 00:43:27;;;;;;;6.90;2.20;;;;;;;14.64;79.76;99943.83;108194;1284;21997;-61
2023/04/22 00:45:53;;;;;;;6.10;2.10;;;;;;;14.63;79.53;99943.84;108195;1284;21993;-61
2023/04/22 00:48:19;;;;;;;5.50;1.90;;;;;;;14.64;79.91;99943.64;108187;1284;21988;-63
2023/04/22 00:50:44;;;;;;;6.00;2.00;;;;;;;14.64;79.86;99943.62;108112;1284;22043;-61
2023/04/22 00:53:10;;;;;;;9.10;2.00;;;;;;;14.63;79.53;99944.91;108127;1284;21983;-61
2023/04/22 00:55:36;;;;;;;7.00;1.90;;;;;;;14.63;79.38;99944.52;108144;1284;21993;-61
2023/04/22 00:58:05;;;;;;;7.00;2.10;;;;;;;14.63;79.47;99946.15;108118;1285;22096;-61
2023/04/22 01:00:31;;;;;;;5.90;2.10;;;;;;;14.61;79.33;99952.73;108212;1284;22094;-61
2023/04/22 01:02:57;;;;;;;8.60;2.40;;;;;;;14.60;79.25;99952.42;108183;1283;21996;-61
2023/04/22 01:05:23;;;;;;;8.70;2.60;;;;;;;14.60;79.12;99950.66;108189;1284;21996;-61
2023/04/22 01:07:50;;;;;;;7.50;2.10;;;;;;;14.58;78.99;99955.48;108283;1284;21987;-59
2023/04/22 01:10:16;;;;;;;7.30;2.40;;;;;;;14.55;79.07;99955.09;108280;1284;21997;-60
2023/04/22 01:12:41;;;;;;;5.80;2.30;;;;;;;14.53;78.91;99957.45;108217;1284;21992;-60
2023/04/22 01:15:07;;;;;;;7.30;2.30;;;;;;;14.52;78.91;99962.09;108162;1284;23444;-60
2023/04/22 01:17:34;;;;;;;5.70;1.70;;;;;;;14.52;79.31;99964.71;108198;1284;22080;-59
2023/04/22 01:20:00;;;;;;;8.30;2.40;;;;;;;14.51;79.20;99965.65;108133;1284;21986;-60
2023/04/22 01:22:26;;;;;;;6.50;2.10;;;;;;;14.52;78.99;99961.58;108227;1283;21987;-61
2023/04/22 01:24:53;;;;;;;5.00;1.90;;;;;;;14.51;78.97;99961.73;108140;1283;23791;-60
2023/04/22 01:27:19;;;;;;;7.70;2.20;;;;;;;14.50;79.07;99965.83;108321;1284;21998;-60
2023/04/22 01:29:45;;;;;;;6.50;1.80;;;;;;;14.50;78.96;99967.63;108289;1284;21976;-59
2023/04/22 01:32:11;;;;;;;8.70;2.10;;;;;;;14.50;78.80;99967.29;108197;1284;21985;-60
2023/04/22 01:34:36;;;;;;;5.20;2.50;;;;;;;14.46;78.96;99963.34;108299;1284;21995;-60
2023/04/22 01:37:02;;;;;;;6.30;2.30;;;;;;;14.46;78.62;99967.59;108147;1284;21981;-60
2023/04/22 01:39:28;;;;;;;5.80;2.10;;;;;;;14.44;78.52;99969.23;108158;1284;21990;-60
2023/04/22 01:41:55;;;;;;;8.80;2.80;;;;;;;14.44;78.53;99967.28;108252;1284;21985;-60
2023/04/22 01:44:21;;;;;;;9.80;3.00;;;;;;;14.44;78.76;99966.95;108209;1284;22024;-61
2023/04/22 01:46:47;;;;;;;6.90;2.20;;;;;;;14.43;78.89;99965.73;108225;1284;22452;-60
2023/04/22 01:49:13;;;;;;;7.10;2.00;;;;;;;14.41;78.89;99965.09;108266;1284;21986;-59
2023/04/22 01:51:39;;;;;;;9.60;2.70;;;;;;;14.41;78.91;99964.55;108138;1284;23142;-60
2023/04/22 01:54:04;;;;;;;7.10;1.80;;;;;;;14.41;78.80;99966.48;108138;1284;22100;-60
2023/04/22 01:56:31;;;;;;;11.30;2.40;;;;;;;14.42;78.77;99968.61;108132;1283;21995;-60
2023/04/22 01:58:56;;;;;;;6.40;2.20;;;;;;;14.42;78.68;99968.58;108266;1283;21987;-59
2023/04/22 02:01:22;;;;;;;8.40;1.80;;;;;;;14.42;78.58;99972.11;108230;1282;22446;-59
2023/04/22 02:03:47;;;;;;;6.90;1.90;;;;;;;14.40;78.50;99969.36;108227;1283;21981;-59
2023/04/22 02:06:13;;;;;;;5.30;1.70;;;;;;;14.39;78.22;99964.65;108318;1283;21986;-59
2023/04/22 02:08:39;;;;;;;3.90;1.90;;;;;;;14.37;78.26;99969.66;108301;1283;22045;-59
2023/04/22 02:11:05;;;;;;;5.80;2.40;;;;;;;14.34;78.35;99969.23;108043;1281;23679;-60
2023/04/22 02:13:38;;;;;;;8.00;2.40;;;;;;;14.31;78.30;99973.92;108324;1283;21984;-60
2023/04/22 02:16:04;;;;;;;7.10;2.40;;;;;;;14.30;78.15;99977.48;108314;1282;22002;-60
2023/04/22 02:18:30;;;;;;;7.40;2.30;;;;;;;14.29;78.21;99978.05;108237;1283;21974;-60
2023/04/22 02:20:56;;;;;;;4.90;1.90;;;;;;;14.27;78.23;99976.67;108251;1283;21981;-60
2023/04/22 02:23:22;;;;;;;7.10;2.20;;;;;;;14.29;78.08;99977.69;108212;1283;21989;-60
2023/04/22 02:25:49;;;;;;;7.70;2.00;;;;;;;14.31;77.98;99978.19;108226;1283;22076;-60
2023/04/22 02:28:15;;;;;;;8.70;2.90;;;;;;;14.28;77.78;99983.00;108340;1283;21986;-60
2023/04/22 02:30:41;;;;;;;14.70;2.90;;;;;;;14.28;78.08;99987.25;108127;1283;22056;-60
2023/04/22 02:33:07;;;;;;;7.00;2.20;;;;;;;14.33;78.48;99984.61;108346;1283;22037;-60
2023/04/22 02:35:33;;;;;;;6.90;2.20;;;;;;;14.38;78.17;99987.27;108397;1283;21980;-60
2023/04/22 02:37:59;;;;;;;10.10;2.20;;;;;;;14.36;77.70;99988.21;108364;1282;21985;-60
2023/04/22 02:40:25;;;;;;;6.80;2.10;;;;;;;14.34;77.52;99990.94;108389;1282;21982;-61
2023/04/22 02:42:51;;;;;;;6.40;1.80;;;;;;;14.31;77.41;99994.40;108391;1282;21988;-60
2023/04/22 02:45:16;;;;;;;7.80;2.20;;;;;;;14.26;77.42;99998.42;108397;1282;21984;-60
2023/04/22 02:47:42;;;;;;;11.70;4.10;;;;;;;14.21;77.32;99997.73;108437;1283;23705;-60
2023/04/22 02:50:08;;;;;;;8.60;2.30;;;;;;;14.16;77.48;99995.41;108413;1282;21983;-61
2023/04/22 02:52:34;;;;;;;5.30;2.20;;;;;;;14.11;77.47;99996.98;108431;1283;21978;-61
2023/04/22 02:55:00;;;;;;;8.50;2.30;;;;;;;14.09;77.41;100002.18;108391;1282;22014;-61
2023/04/22 02:57:25;;;;;;;9.60;2.70;;;;;;;14.09;77.46;100006.41;108401;1283;22015;-61
2023/04/22 02:59:51;;;;;;;9.30;2.30;;;;;;;14.10;77.60;100006.56;108409;1283;21976;-60
2023/04/22 03:02:17;;;;;;;6.60;2.10;;;;;;;14.08;77.34;100008.55;108394;1283;22851;-61
2023/04/22 03:04:43;;;;;;;8.60;2.70;;;;;;;14.08;77.33;100011.40;108396;1283;21991;-61
2023/04/22 03:07:09;;;;;;;6.90;2.60;;;;;;;14.06;77.27;100014.97;108292;1283;142319;-60
2023/04/22 03:09:35;;;;;;;10.50;2.80;;;;;;;14.02;76.99;100018.29;108396;1282;21984;-61
2023/04/22 03:12:01;;;;;;;7.50;2.30;;;;;;;14.00;77.15;100021.52;108461;1282;21991;-60
2023/04/22 03:14:27;;;;;;;8.80;2.30;;;;;;;14.00;77.25;100026.99;108384;1282;21985;-60
2023/04/22 03:16:53;;;;;;;7.50;2.20;;;;;;;13.97;77.14;100029.55;108384;1283;22023;-61
2023/04/22 03:19:19;;;;;;;11.90;2.70;;;;;;;13.93;77.09;100037.06;108440;1283;21988;-61
2023/04/22 03:21:44;;;;;;;8.00;2.40;;;;;;;13.92;77.44;100041.33;108383;1274;23091;-61
2023/04/22 03:24:10;;;;;;;7.70;2.00;;;;;;;13.93;77.40;100045.71;108439;1283;21988;-61
2023/04/22 03:26:36;;;;;;;7.10;2.80;;;;;;;13.94;77.36;100048.86;108398;1271;22022;-61
2023/04/22 03:29:01;;;;;;;8.50;2.50;;;;;;;13.95;77.33;100050.61;108385;1281;22073;-61
2023/04/22 03:31:27;;;;;;;10.00;2.40;;;;;;;13.94;77.35;100051.86;108369;1283;21981;-61
2023/04/22 03:33:53;;;;;;;6.60;2.30;;;;;;;13.94;77.32;100055.55;108418;1283;21986;-60
2023/04/22 03:36:20;;;;;;;7.20;2.50;;;;;;;13.95;77.28;100060.66;108379;1282;21985;-61
2023/04/22 03:38:45;;;;;;;8.40;2.30;;;;;;;13.95;77.05;100063.12;108383;1283;21987;-61
2023/04/22 03:41:12;;;;;;;6.90;2.10;;;;;;;13.94;76.98;100068.24;108408;1282;21995;-61
2023/04/22 03:43:37;;;;;;;7.80;2.00;;;;;;;13.95;77.05;100075.27;107673;1283;1002981;-60
2023/04/22 03:46:06;;;;;;;8.20;2.30;;;;;;;13.93;76.90;100076.92;108436;1283;21974;-61
2023/04/22 03:48:34;;;;;;;13.10;2.10;;;;;;;13.89;76.62;100079.01;108388;1283;22066;-61
2023/04/22 03:51:01;;;;;;;6.80;2.10;;;;;;;13.83;76.38;100081.30;108408;1282;21982;-61
2023/04/22 03:53:29;;;;;;;6.00;1.90;;;;;;;13.77;76.41;100084.48;108470;1282;22014;-61
2023/04/22 03:55:57;;;;;;;8.60;2.20;;;;;;;13.72;76.46;100088.84;108412;1282;21994;-61
2023/04/22 03:58:23;;;;;;;12.10;2.20;;;;;;;13.69;76.72;100092.32;108379;1282;21987;-62
2023/04/22 04:00:51;;;;;;;7.90;1.80;;;;;;;13.65;77.37;100093.30;108358;1282;22022;-61
2023/04/22 04:03:17;;;;;;;11.10;2.60;;;;;;;13.65;77.29;100102.80;108388;1282;23383;-62
2023/04/22 04:05:43;;;;;;;7.50;2.40;;;;;;;13.69;77.64;100105.17;108374;1282;21989;-61
2023/04/22 04:08:08;;;;;;;7.90;2.10;;;;;;;13.70;77.69;100105.30;106902;1282;1003029;-60
2023/04/22 04:10:36;;;;;;;16.00;3.10;;;;;;;13.76;77.62;100109.90;108219;1282;23605;-60
2023/04/22 04:13:01;;;;;;;10.10;4.00;;;;;;;13.77;77.19;100112.52;108443;1282;22450;-60
2023/04/22 04:15:27;;;;;;;6.40;3.10;;;;;;;13.77;77.03;100114.63;108367;1283;22456;-61
2023/04/22 04:17:55;;;;;;;16.30;3.30;;;;;;;13.77;76.98;100120.45;108378;1282;21987;-61
2023/04/22 04:20:21;;;;;;;7.50;2.50;;;;;;;13.79;77.06;100125.33;108381;1282;21982;-61
2023/04/22 04:22:47;;;;;;;10.00;2.80;;;;;;;13.82;77.02;100128.23;108408;1282;21950;-61
2023/04/22 04:25:12;;;;;;;11.90;5.70;;;;;;;13.85;77.48;100129.05;108400;1282;21986;-61
2023/04/22 04:27:40;;;;;;;12.90;5.80;;;;;;;13.90;77.40;100128.54;108406;1282;21986;-61
2023/04/22 04:30:07;;;;;;;10.60;4.40;;;;;;;13.95;77.78;100129.08;108421;1282;23605;-61
2023/04/22 04:32:33;;;;;;;12.40;3.70;;;;;;;14.00;78.06;100133.70;108415;1282;23624;-60
2023/04/22 04:35:00;;;;;;;9.20;2.80;;;;;;;14.09;78.20;100138.55;108346;1283;21981;-61
2023/04/22 04:37:26;;;;;;;8.80;3.10;;;;;;;14.20;78.51;100144.90;108142;1283;22184;-61
2023/04/22 04:39:52;;;;;;;13.30;3.30;;;;;;;14.28;78.26;100142.54;108262;1283;21983;-62
2023/04/22 04:42:19;;;;;;;8.70;2.80;;;;;;;14.36;77.88;100143.52;108321;1283;21948;-60
2023/04/22 04:44:46;;;;;;;10.40;2.80;;;;;;;14.43;77.67;100144.20;108265;1283;22021;-61
2023/04/22 04:47:11;;;;;;;13.20;2.40;;;;;;;14.53;78.06;100143.54;108269;1283;24960;-61
2023/04/22 04:49:38;;;;;;;9.80;2.80;;;;;;;14.64;78.25;100144.41;108298;1283;22003;-61
2023/04/22 04:52:04;;;;;;;17.40;5.30;;;;;;;14.75;78.39;100144.26;108311;1282;21986;-61
2023/04/22 04:54:30;;;;;;;13.50;5.60;;;;;;;14.85;78.43;100144.10;108176;1282;21980;-62
2023/04/22 04:56:57;;;;;;;25.10;10.60;;;;;;;14.94;78.15;100147.69;108294;1282;21988;-61
2023/04/22 04:59:23;;;;;;;28.30;13.50;;;;;;;15.01;77.67;100146.91;108248;1283;21993;-61
2023/04/22 05:01:49;;;;;;;23.70;13.10;;;;;;;15.07;77.99;100150.06;108267;1283;21983;-61
2023/04/22 05:04:16;;;;;;;17.80;10.30;;;;;;;15.14;77.31;100149.30;108387;1270;21982;-61
2023/04/22 05:06:42;;;;;;;15.90;8.10;;;;;;;15.20;76.89;100149.98;108230;1282;21978;-62
2023/04/22 05:09:08;;;;;;;12.30;6.50;;;;;;;15.26;77.29;100148.02;108273;1283;22170;-61
2023/04/22 05:11:34;;;;;;;16.30;6.80;;;;;;;15.35;77.59;100148.38;108345;1283;21971;-62
2023/04/22 05:13:59;;;;;;;16.40;5.90;;;;;;;15.46;78.01;100150.48;108213;1283;22041;-61
2023/04/22 05:16:25;;;;;;;15.10;3.40;;;;;;;15.55;77.91;100152.61;108190;1284;21986;-62
2023/04/22 05:18:51;;;;;;;12.60;3.50;;;;;;;15.61;77.21;100157.17;108113;1284;22001;-61
2023/04/22 05:21:19;;;;;;;10.60;2.50;;;;;;;15.70;77.48;100156.14;108138;1284;22179;-61
2023/04/22 05:23:45;;;;;;;9.10;2.70;;;;;;;15.78;77.75;100163.27;108199;1284;21996;-61
2023/04/22 05:26:11;;;;;;;9.90;3.10;;;;;;;15.87;77.55;100162.23;108212;1283;21985;-61
2023/04/22 05:28:41;;;;;;;7.80;2.50;;;;;;;15.96;77.32;100161.94;108245;1283;21992;-62
2023/04/22 05:31:06;;;;;;;8.50;2.50;;;;;;;16.06;77.32;100162.95;108373;1283;21989;-62
2023/04/22 05:33:32;;;;;;;8.30;2.50;;;;;;;16.16;77.34;100162.06;108322;1283;21992;-62
2023/04/22 05:35:57;;;;;;;9.60;2.70;;;;;;;16.24;76.98;100159.63;108276;1283;21983;-61
2023/04/22 05:38:23;;;;;;;9.90;2.20;;;;;;;16.34;76.97;100161.34;108306;1283;23738;-61
2023/04/22 05:40:49;;;;;;;9.40;2.40;;;;;;;16.45;76.58;100162.35;108262;1284;24074;-60
2023/04/22 05:43:15;;;;;;;9.70;2.50;;;;;;;16.54;76.28;100162.88;108303;1283;23752;-61
2023/04/22 05:45:41;;;;;;;7.70;2.30;;;;;;;16.62;76.08;100160.75;108313;1282;22003;-61
2023/04/22 05:48:06;;;;;;;11.40;2.70;;;;;;;16.75;76.75;100159.89;108211;1283;22706;-61
2023/04/22 05:50:32;;;;;;;7.10;2.20;;;;;;;16.89;77.45;100158.05;108298;1282;22039;-61
2023/04/22 05:52:57;;;;;;;9.60;3.60;;;;;;;17.03;76.81;100162.98;108299;1283;21991;-61
2023/04/22 05:55:23;;;;;;;6.90;2.70;;;;;;;17.15;76.24;100163.38;108251;1283;21986;-61
2023/04/22 05:57:50;;;;;;;7.80;2.60;;;;;;;17.27;75.92;100165.88;108225;1282;22027;-61
2023/04/22 06:00:16;;;;;;;11.60;2.80;;;;;;;17.32;73.56;100163.54;108245;1282;22451;-60
2023/04/22 06:02:42;;;;;;;9.10;2.30;;;;;;;17.39;73.70;100163.95;108241;1282;22018;-62
2023/04/22 06:05:08;;;;;;;13.10;2.70;;;;;;;17.50;73.00;100165.77;108230;1281;22002;-61
2023/04/22 06:07:35;;;;;;;9.20;2.60;;;;;;;17.64;73.77;100168.30;108330;1283;21995;-60
2023/04/22 06:10:00;;;;;;;11.40;3.40;;;;;;;17.75;72.91;100168.72;108252;1283;21988;-62
2023/04/22 06:12:26;;;;;;;22.90;7.70;;;;;;;17.84;72.87;100170.80;108281;1283;21986;-60
2023/04/22 06:14:52;;;;;;;11.70;4.00;;;;;;;17.93;72.48;100169.34;108321;1283;21992;-59
2023/04/22 06:17:17;;;;;;;15.20;4.90;;;;;;;18.03;73.10;100167.48;108257;1283;21999;-60
2023/04/22 06:19:43;;;;;;;79.50;17.90;;;;;;;18.15;73.37;100169.05;108142;1283;22050;-60
2023/04/22 06:22:09;;;;;;;146.80;38.40;;;;;;;18.25;72.42;100170.55;108337;1283;21994;-61
2023/04/22 06:24:35;;;;;;;74.20;19.10;;;;;;;18.40;71.76;100172.27;108380;1283;21994;-61
2023/04/22 06:27:01;;;;;;;24.90;5.80;;;;;;;18.52;70.38;100174.60;108366;1283;21993;-62
2023/04/22 06:29:26;;;;;;;19.40;5.30;;;;;;;18.58;69.46;100181.73;108378;1283;21989;-60
2023/04/22 06:31:53;;;;;;;15.20;4.10;;;;;;;18.68;70.77;100181.27;108208;1284;23637;-62
2023/04/22 06:34:19;;;;;;;12.80;2.70;;;;;;;18.83;72.63;100182.83;108264;1284;21996;-63
2023/04/22 06:36:45;;;;;;;16.20;4.10;;;;;;;18.96;70.96;100186.27;108217;1283;21987;-60
2023/04/22 06:39:10;;;;;;;8.80;3.00;;;;;;;19.10;71.56;100183.83;108228;1283;21996;-62
2023/04/22 06:41:36;;;;;;;10.20;2.70;;;;;;;19.24;70.77;100184.20;108235;1284;21976;-60
2023/04/22 06:44:02;;;;;;;9.30;2.60;;;;;;;19.38;70.29;100184.73;108221;1283;24364;-64
2023/04/22 06:46:27;;;;;;;7.80;2.20;;;;;;;19.59;71.99;100183.05;108201;1284;21987;-60
2023/04/22 06:48:53;;;;;;;10.20;2.90;;;;;;;19.76;69.71;100183.61;108197;1283;21989;-62
2023/04/22 06:51:19;;;;;;;25.00;14.10;;;;;;;19.85;64.95;100184.03;108256;1282;21999;-62
2023/04/22 06:53:45;;;;;;;27.10;15.80;;;;;;;19.93;64.22;100180.75;108240;1283;24106;-61
2023/04/22 06:56:10;;;;;;;23.10;9.50;;;;;;;20.07;65.54;100180.89;108294;1283;21991;-61
2023/04/22 06:58:36;;;;;;;14.90;6.80;;;;;;;20.23;64.67;100181.95;108214;1283;21984;-61
2023/04/22 07:01:02;;;;;;;9.20;3.20;;;;;;;20.40;64.61;100182.66;108263;1283;21986;-62
2023/04/22 07:03:28;;;;;;;8.50;2.50;;;;;;;20.60;66.28;100188.08;108242;1283;21988;-61
2023/04/22 07:05:53;;;;;;;10.00;2.90;;;;;;;20.81;66.17;100186.05;108237;1283;22039;-62
2023/04/22 07:08:19;;;;;;;7.20;2.50;;;;;;;20.90;61.45;100187.14;108095;1283;21988;-62
2023/04/22 07:10:44;;;;;;;10.20;2.10;;;;;;;20.91;58.28;100185.29;108205;1283;23709;-61
2023/04/22 07:13:10;;;;;;;13.90;5.10;;;;;;;21.01;61.35;100183.80;107482;1283;1002525;-60
2023/04/22 07:15:36;;;;;;;10.20;3.20;;;;;;;21.13;63.11;100180.42;108224;1283;21984;-60
2023/04/22 07:18:02;;;;;;;13.30;3.10;;;;;;;21.20;58.71;100180.91;108064;1283;23049;-61
2023/04/22 07:20:28;;;;;;;16.50;5.80;;;;;;;21.33;59.56;100179.07;108219;1283;21986;-62
2023/04/22 07:22:54;;;;;;;6.60;2.60;;;;;;;21.50;57.60;100178.55;108242;1283;21995;-61
2023/04/22 07:25:19;;;;;;;10.90;3.40;;;;;;;21.70;57.81;100174.34;108192;1283;21997;-61
2023/04/22 07:27:45;;;;;;;12.70;3.50;;;;;;;21.94;58.08;100175.35;108230;1283;22038;-61
2023/04/22 07:30:14;;;;;;;13.90;3.60;;;;;;;22.17;58.71;100175.31;108279;1283;21985;-62
2023/04/22 07:32:40;;;;;;;10.60;3.00;;;;;;;22.42;59.19;100178.75;108331;1283;22027;-63
2023/04/22 07:35:06;;;;;;;8.90;2.90;;;;;;;22.50;55.68;100179.49;108223;1283;22286;-61
2023/04/22 07:37:31;;;;;;;10.00;3.10;;;;;;;22.59;55.97;100181.41;108364;1283;22151;-62
2023/04/22 07:39:57;;;;;;;11.30;4.20;;;;;;;22.79;58.56;100181.20;108379;1282;21990;-60
2023/04/22 07:42:23;;;;;;;12.80;3.80;;;;;;;23.00;58.31;100185.31;108402;1283;21981;-61
2023/04/22 07:44:49;;;;;;;12.70;3.30;;;;;;;23.22;58.40;100183.70;108392;1283;21983;-61
2023/04/22 07:47:15;;;;;;;10.80;3.30;;;;;;;23.38;56.63;100184.59;108379;1283;21994;-62
2023/04/22 07:49:42;;;;;;;10.30;3.40;;;;;;;23.39;52.10;100186.50;108394;1283;21993;-62
2023/04/22 07:52:08;;;;;;;11.50;3.00;;;;;;;23.31;50.25;100185.23;108396;1283;21982;-61
2023/04/22 07:54:33;;;;;;;10.50;3.30;;;;;;;23.36;52.86;100187.23;108389;1282;21984;-61
2023/04/22 07:57:00;;;;;;;13.60;3.80;;;;;;;23.45;52.06;100189.98;108356;1283;21985;-61
2023/04/22 07:59:26;;;;;;;7.10;2.90;;;;;;;23.53;50.50;100195.02;108380;1283;21985;-61
2023/04/22 08:01:51;;;;;;;10.40;3.40;;;;;;;23.63;50.49;100195.05;108335;1283;22021;-61
2023/04/22 08:04:17;;;;;;;7.30;2.80;;;;;;;23.70;48.89;100193.48;108206;1283;21976;-61
2023/04/22 08:06:43;;;;;;;13.80;4.80;;;;;;;23.86;51.29;100195.00;108301;1283;21991;-61
2023/04/22 08:09:09;;;;;;;9.40;3.60;;;;;;;24.05;52.25;100201.77;108279;1283;23754;-62
2023/04/22 08:11:35;;;;;;;9.20;3.00;;;;;;;24.23;51.91;100201.41;108331;1283;21983;-62
2023/04/22 08:14:01;;;;;;;10.40;3.90;;;;;;;24.38;50.34;100199.44;108286;1283;21986;-62
2023/04/22 08:16:26;;;;;;;10.30;2.90;;;;;;;24.45;48.31;100201.02;108398;1282;23666;-62
2023/04/22 08:18:52;;;;;;;15.20;4.20;;;;;;;24.52;47.75;100203.42;108332;1283;22457;-61
2023/04/22 08:21:18;;;;;;;14.90;4.60;;;;;;;24.50;44.90;100203.34;108357;1283;21985;-63
2023/04/22 08:23:43;;;;;;;10.60;3.10;;;;;;;24.54;45.13;100202.04;108399;1283;22020;-62
2023/04/22 08:26:13;;;;;;;15.60;4.10;;;;;;;24.58;45.50;100200.09;108346;1283;23624;-61
2023/04/22 08:28:40;;;;;;;11.80;3.80;;;;;;;24.67;44.32;100200.52;108251;1283;21983;-61
2023/04/22 08:31:09;;;;;;;13.20;4.10;;;;;;;24.80;44.32;100198.13;108413;1283;22004;-61
2023/04/22 08:33:35;;;;;;;12.40;5.10;;;;;;;24.97;45.44;100193.42;108260;1283;21981;-62
2023/04/22 08:36:02;;;;;;;10.70;4.30;;;;;;;25.17;46.30;100197.02;108290;1283;21986;-61
2023/04/22 08:38:28;;;;;;;9.70;3.80;;;;;;;25.25;43.57;100193.84;108398;1282;22018;-61
2023/04/22 08:40:55;;;;;;;8.40;3.50;;;;;;;25.39;45.31;100196.24;108368;1282;22149;-62
2023/04/22 08:43:21;;;;;;;10.70;3.60;;;;;;;25.59;44.65;100199.59;108418;1283;21998;-61
2023/04/22 08:45:47;;;;;;;7.90;3.50;;;;;;;25.75;44.65;100197.90;108414;1283;21988;-63
2023/04/22 08:48:12;;;;;;;6.80;3.10;;;;;;;25.91;44.93;100196.14;108433;1282;21986;-61
2023/04/22 08:50:38;;;;;;;12.60;4.80;;;;;;;25.94;43.64;100195.71;108243;1283;21985;-62
2023/04/22 08:53:04;;;;;;;10.40;3.60;;;;;;;26.00;42.46;100193.98;108431;1282;21994;-62
2023/04/22 08:55:30;;;;;;;8.80;3.70;;;;;;;26.08;43.13;100190.96;108357;1282;21984;-63
2023/04/22 08:57:55;;;;;;;13.00;4.30;;;;;;;26.27;44.32;100190.05;108228;1283;22022;-61
2023/04/22 09:00:21;;;;;;;9.60;3.70;;;;;;;26.33;41.86;100191.37;108219;1283;22004;-61
2023/04/22 09:02:47;;;;;;;8.60;3.60;;;;;;;26.36;43.75;100187.19;108412;1282;21994;-62
2023/04/22 09:05:13;;;;;;;9.40;3.70;;;;;;;26.48;42.48;100185.61;108228;1283;22002;-59
2023/04/22 09:07:39;;;;;;;12.80;4.80;;;;;;;26.47;40.57;100181.59;108473;1282;22162;-61
2023/04/22 09:10:07;;;;;;;9.70;4.20;;;;;;;26.50;40.51;100184.40;108273;1282;21993;-63
2023/04/22 09:12:33;;;;;;;8.70;4.50;;;;;;;26.59;40.56;100184.95;108428;1282;21982;-63
2023/04/22 09:14:58;;;;;;;11.60;5.70;;;;;;;26.73;42.53;100188.28;108367;1283;22020;-63
2023/04/22 09:17:31;;;;;;;11.70;4.60;;;;;;;26.93;43.80;100185.16;108422;1282;23713;-62
2023/04/22 09:19:58;;;;;;;8.40;4.60;;;;;;;27.11;42.72;100184.77;108415;1283;22166;-63
2023/04/22 09:22:26;;;;;;;11.20;6.40;;;;;;;27.18;41.37;100184.85;108467;1282;21995;-63
2023/04/22 09:24:52;;;;;;;8.50;4.20;;;;;;;27.30;42.06;100186.05;108396;1283;21982;-62
2023/04/22 09:27:18;;;;;;;8.50;4.10;;;;;;;27.39;40.01;100181.84;108379;1282;21986;-62
2023/04/22 09:29:48;;;;;;;12.30;4.00;;;;;;;27.39;39.21;100183.80;108405;1283;21988;-61
2023/04/22 09:32:15;;;;;;;10.90;3.90;;;;;;;27.47;41.34;100188.19;108405;1283;21995;-61
2023/04/22 09:34:51;;;;;;;10.60;3.70;;;;;;;27.63;41.84;100187.89;108410;1283;21982;-63
2023/04/22 09:37:23;;;;;;;8.50;3.70;;;;;;;27.82;41.88;100184.82;108389;1282;21981;-62
2023/04/22 09:39:49;;;;;;;9.10;4.00;;;;;;;28.00;42.38;100182.18;108438;1282;24027;-63
2023/04/22 09:42:16;;;;;;;11.30;4.40;;;;;;;28.11;40.75;100185.88;108444;1283;21994;-62
2023/04/22 09:44:41;;;;;;;7.10;3.80;;;;;;;28.20;40.52;100186.54;108459;1282;21983;-63
2023/04/22 09:47:09;;;;;;;9.80;4.40;;;;;;;28.27;39.84;100186.61;108254;1283;22009;-64
2023/04/22 09:49:36;;;;;;;7.50;3.80;;;;;;;28.29;39.98;100185.33;108376;1282;21983;-62
2023/04/22 09:52:02;;;;;;;9.40;4.00;;;;;;;28.33;38.83;100188.23;108474;1282;21978;-62
2023/04/22 09:54:28;;;;;;;7.80;4.00;;;;;;;28.31;38.75;100188.56;108327;1282;22039;-62
2023/04/22 09:56:54;;;;;;;7.00;3.90;;;;;;;28.47;40.95;100188.25;108274;1282;21977;-63
2023/04/22 09:59:24;;;;;;;8.50;4.10;;;;;;;28.93;41.35;100186.05;108395;1282;21985;-61
2023/04/22 10:01:56;;;;;;;11.80;4.90;;;;;;;29.33;40.68;100182.92;108377;1283;21993;-62
2023/04/22 10:04:23;;;;;;;13.80;6.20;;;;;;;29.37;37.39;100186.13;108274;1283;22956;-62
2023/04/22 10:06:50;;;;;;;9.90;6.20;;;;;;;29.18;36.21;100191.52;108262;1283;22002;-62
2023/04/22 10:09:17;;;;;;;16.60;9.60;;;;;;;28.98;36.36;100197.32;108275;1283;23055;-62
2023/04/22 10:11:43;;;;;;;9.70;6.30;;;;;;;28.92;37.67;100196.27;108326;1283;21992;-61
2023/04/22 10:14:10;;;;;;;11.50;4.30;;;;;;;29.04;38.83;100194.09;108232;1283;22085;-59
2023/04/22 10:16:36;;;;;;;7.60;4.20;;;;;;;29.01;38.63;100198.17;108308;1283;22037;-60
2023/04/22 10:19:03;;;;;;;7.90;3.70;;;;;;;28.74;36.58;100196.46;108257;1283;22062;-62
2023/04/22 10:21:29;;;;;;;7.20;3.70;;;;;;;28.56;35.65;100196.11;108287;1283;22033;-62
2023/04/22 10:23:57;;;;;;;7.80;3.80;;;;;;;28.40;35.81;100196.85;108175;1284;22024;-63
2023/04/22 10:26:38;;;;;;;7.20;4.00;;;;;;;28.36;36.77;100199.55;108142;1285;23734;-62
2023/04/22 10:29:15;;;;;;;6.50;4.20;;;;;;;28.29;35.18;100198.90;108138;1284;21984;-64
2023/04/22 10:32:05;;;;;;;6.20;3.80;;;;;;;28.49;39.18;100191.35;108155;1284;21992;-64
2023/04/22 10:34:31;;;;;;;7.40;3.80;;;;;;;28.80;37.89;100184.73;108218;1284;21946;-64
2023/04/22 10:37:06;;;;;;;6.80;3.90;;;;;;;29.05;37.59;100180.31;108284;1284;21986;-61
2023/04/22 10:39:32;;;;;;;11.20;4.30;;;;;;;29.20;35.75;100176.67;108242;1284;22042;-65
2023/04/22 10:42:01;;;;;;;17.20;9.80;;;;;;;29.35;37.83;100180.01;108245;1282;21995;-64
2023/04/22 10:44:29;;;;;;;13.70;5.70;;;;;;;29.64;37.01;100177.45;108245;1283;22028;-61
2023/04/22 10:46:56;;;;;;;6.80;4.10;;;;;;;29.95;38.28;100171.49;108294;1283;23049;-62
2023/04/22 10:49:23;;;;;;;7.70;3.70;;;;;;;30.07;36.66;100169.17;108294;1283;22037;-65
2023/04/22 10:51:53;;;;;;;11.00;4.20;;;;;;;30.23;38.19;100170.71;108329;1283;21993;-65
2023/04/22 10:54:27;;;;;;;15.60;4.00;;;;;;;30.51;38.31;100169.02;108314;1283;22160;-65
2023/04/22 10:57:13;;;;;;;10.60;4.50;;;;;;;30.63;34.47;100164.48;108379;1283;21989;-60
2023/04/22 10:59:51;;;;;;;12.20;4.20;;;;;;;30.81;35.19;100161.58;108269;1283;22079;-60
2023/04/22 11:02:18;;;;;;;4.50;3.00;;;;;;;31.07;35.77;100161.75;108354;1280;21981;-61
2023/04/22 11:04:43;;;;;;;5.90;3.90;;;;;;;31.13;33.25;100162.48;108269;1283;22025;-63
2023/04/22 11:07:21;;;;;;;6.70;3.70;;;;;;;31.17;33.35;100162.05;108088;1283;21983;-64
2023/04/22 11:10:03;;;;;;;7.70;4.00;;;;;;;31.10;31.17;100166.41;107465;1283;1002999;-63
2023/04/22 11:12:34;;;;;;;6.50;3.30;;;;;;;31.11;35.12;100164.61;108285;1283;22043;-61